sensor_id;sensor_type;location;lat;lon;timestamp;P1;durP1;ratioP1;P2;durP2;ratioP2
13999;SDS011;7075;53.574;10.054;2023-02-08T00:02:20;176.20;;;166.50;;
13999;SDS011;7075;53.574;10.054;2023-02-08T00:04:45;154.43;;;145.82;;
13999;SDS011;7075;53.574;10.054;2023-02-08T00:07:11;166.38;;;157.23;;
13999;SDS011;7075;53.574;10.054;2023-02-08T00:09:36;171.03;;;161.73;;
13999;SDS011;7075;53.574;10.054;2023-02-08T00:12:02;153.70;;;145.20;;
13999;SDS011;7075;53.574;10.054;2023-02-08T00:14:28;181.60;;;171.70;;
13999;SDS011;7075;53.574;10.054;2023-02-08T00:16:53;180.60;;;170.73;;
13999;SDS011;7075;53.574;10.054;2023-02-08T00:19:19;181.38;;;171.55;;
13999;SDS011;7075;53.574;10.054;2023-02-08T00:21:45;185.93;;;175.75;;
13999;SDS011;7075;53.574;10.054;2023-02-08T00:24:10;184.17;;;174.13;;
13999;SDS011;7075;53.574;10.054;2023-02-08T00:26:36;164.57;;;155.40;;
13999;SDS011;7075;53.574;10.054;2023-02-08T00:29:01;162.57;;;153.57;;
13999;SDS011;7075;53.574;10.054;2023-02-08T00:31:27;174.10;;;164.55;;
13999;SDS011;7075;53.574;10.054;2023-02-08T00:33:53;188.63;;;178.43;;
13999;SDS011;7075;53.574;10.054;2023-02-08T00:36:18;191.90;;;181.43;;
13999;SDS011;7075;53.574;10.054;2023-02-08T00:38:44;214.53;;;203.10;;
13999;SDS011;7075;53.574;10.054;2023-02-08T00:41:09;218.73;;;207.10;;
13999;SDS011;7075;53.574;10.054;2023-02-08T00:43:35;218.57;;;206.98;;
13999;SDS011;7075;53.574;10.054;2023-02-08T00:46:00;232.50;;;220.30;;
13999;SDS011;7075;53.574;10.054;2023-02-08T00:48:26;230.40;;;218.17;;
13999;SDS011;7075;53.574;10.054;2023-02-08T00:50:56;238.40;;;225.68;;
13999;SDS011;7075;53.574;10.054;2023-02-08T00:53:25;234.48;;;222.18;;
13999;SDS011;7075;53.574;10.054;2023-02-08T00:55:52;226.88;;;214.93;;
13999;SDS011;7075;53.574;10.054;2023-02-08T00:58:19;250.32;;;237.23;;
13999;SDS011;7075;53.574;10.054;2023-02-08T01:00:44;232.13;;;220.07;;
13999;SDS011;7075;53.574;10.054;2023-02-08T01:03:10;248.33;;;235.17;;
13999;SDS011;7075;53.574;10.054;2023-02-08T01:05:36;256.77;;;243.20;;
13999;SDS011;7075;53.574;10.054;2023-02-08T01:08:02;260.90;;;247.20;;
13999;SDS011;7075;53.574;10.054;2023-02-08T01:10:28;263.10;;;249.33;;
13999;SDS011;7075;53.574;10.054;2023-02-08T01:12:53;263.13;;;249.33;;
13999;SDS011;7075;53.574;10.054;2023-02-08T01:15:19;262.50;;;248.65;;
13999;SDS011;7075;53.574;10.054;2023-02-08T01:17:44;242.97;;;229.97;;
13999;SDS011;7075;53.574;10.054;2023-02-08T01:20:10;266.10;;;251.97;;
13999;SDS011;7075;53.574;10.054;2023-02-08T01:22:36;249.87;;;236.60;;
13999;SDS011;7075;53.574;10.054;2023-02-08T01:25:01;260.10;;;246.47;;
13999;SDS011;7075;53.574;10.054;2023-02-08T01:27:28;253.40;;;239.93;;
13999;SDS011;7075;53.574;10.054;2023-02-08T01:29:53;253.98;;;240.55;;
13999;SDS011;7075;53.574;10.054;2023-02-08T01:32:19;263.38;;;249.48;;
13999;SDS011;7075;53.574;10.054;2023-02-08T01:34:44;258.73;;;245.10;;
13999;SDS011;7075;53.574;10.054;2023-02-08T01:37:10;240.60;;;227.90;;
13999;SDS011;7075;53.574;10.054;2023-02-08T01:39:36;251.80;;;238.40;;
13999;SDS011;7075;53.574;10.054;2023-02-08T01:42:01;235.07;;;222.57;;
13999;SDS011;7075;53.574;10.054;2023-02-08T01:47:30;266.58;;;252.23;;
13999;SDS011;7075;53.574;10.054;2023-02-08T01:49:55;253.60;;;240.07;;
13999;SDS011;7075;53.574;10.054;2023-02-08T01:52:22;250.85;;;237.63;;
13999;SDS011;7075;53.574;10.054;2023-02-08T01:54:58;259.85;;;246.15;;
13999;SDS011;7075;53.574;10.054;2023-02-08T01:57:30;255.88;;;242.10;;
13999;SDS011;7075;53.574;10.054;2023-02-08T02:02:34;249.30;;;235.90;;
13999;SDS011;7075;53.574;10.054;2023-02-08T02:05:01;236.13;;;223.55;;
13999;SDS011;7075;53.574;10.054;2023-02-08T02:07:27;234.40;;;221.73;;
13999;SDS011;7075;53.574;10.054;2023-02-08T02:09:57;242.73;;;229.47;;
13999;SDS011;7075;53.574;10.054;2023-02-08T02:12:29;236.43;;;223.50;;
13999;SDS011;7075;53.574;10.054;2023-02-08T02:14:56;236.40;;;223.50;;
13999;SDS011;7075;53.574;10.054;2023-02-08T02:17:23;240.27;;;227.20;;
13999;SDS011;7075;53.574;10.054;2023-02-08T02:30:33;235.10;;;222.20;;
13999;SDS011;7075;53.574;10.054;2023-02-08T02:38:48;239.38;;;226.10;;
13999;SDS011;7075;53.574;10.054;2023-02-08T02:41:40;224.07;;;211.43;;
13999;SDS011;7075;53.574;10.054;2023-02-08T02:45:25;242.23;;;228.98;;
13999;SDS011;7075;53.574;10.054;2023-02-08T02:47:54;245.80;;;232.30;;
13999;SDS011;7075;53.574;10.054;2023-02-08T02:50:38;240.82;;;227.80;;
13999;SDS011;7075;53.574;10.054;2023-02-08T02:53:17;238.60;;;225.60;;
13999;SDS011;7075;53.574;10.054;2023-02-08T02:56:00;234.05;;;221.25;;
13999;SDS011;7075;53.574;10.054;2023-02-08T02:58:30;236.87;;;223.80;;
13999;SDS011;7075;53.574;10.054;2023-02-08T03:00:57;235.13;;;222.07;;
13999;SDS011;7075;53.574;10.054;2023-02-08T03:03:29;243.60;;;230.30;;
13999;SDS011;7075;53.574;10.054;2023-02-08T03:06:00;241.13;;;227.82;;
13999;SDS011;7075;53.574;10.054;2023-02-08T03:11:25;245.27;;;231.60;;
13999;SDS011;7075;53.574;10.054;2023-02-08T03:16:51;230.10;;;217.23;;
13999;SDS011;7075;53.574;10.054;2023-02-08T03:25:06;237.50;;;224.40;;
13999;SDS011;7075;53.574;10.054;2023-02-08T03:27:48;232.40;;;219.18;;
13999;SDS011;7075;53.574;10.054;2023-02-08T03:30:29;244.02;;;230.43;;
13999;SDS011;7075;53.574;10.054;2023-02-08T03:33:01;238.55;;;225.48;;
13999;SDS011;7075;53.574;10.054;2023-02-08T03:38:12;241.43;;;227.77;;
13999;SDS011;7075;53.574;10.054;2023-02-08T03:40:47;234.35;;;221.32;;
13999;SDS011;7075;53.574;10.054;2023-02-08T03:43:17;229.23;;;216.32;;
13999;SDS011;7075;53.574;10.054;2023-02-08T03:46:02;236.95;;;223.75;;
13999;SDS011;7075;53.574;10.054;2023-02-08T03:48:46;230.15;;;217.30;;
13999;SDS011;7075;53.574;10.054;2023-02-08T03:51:26;232.20;;;219.20;;
13999;SDS011;7075;53.574;10.054;2023-02-08T03:53:53;233.10;;;219.98;;
13999;SDS011;7075;53.574;10.054;2023-02-08T03:59:11;221.95;;;209.45;;
13999;SDS011;7075;53.574;10.054;2023-02-08T04:02:16;231.43;;;218.43;;
13999;SDS011;7075;53.574;10.054;2023-02-08T04:04:41;227.73;;;214.93;;
13999;SDS011;7075;53.574;10.054;2023-02-08T04:07:10;220.65;;;208.15;;
13999;SDS011;7075;53.574;10.054;2023-02-08T04:09:37;232.25;;;219.30;;
13999;SDS011;7075;53.574;10.054;2023-02-08T04:12:03;227.57;;;215.03;;
13999;SDS011;7075;53.574;10.054;2023-02-08T04:14:29;237.05;;;223.75;;
13999;SDS011;7075;53.574;10.054;2023-02-08T04:16:55;234.57;;;221.48;;
13999;SDS011;7075;53.574;10.054;2023-02-08T04:19:20;236.67;;;223.37;;
13999;SDS011;7075;53.574;10.054;2023-02-08T04:21:46;228.87;;;216.00;;
13999;SDS011;7075;53.574;10.054;2023-02-08T04:24:11;238.03;;;224.83;;
13999;SDS011;7075;53.574;10.054;2023-02-08T04:26:37;227.57;;;214.63;;
13999;SDS011;7075;53.574;10.054;2023-02-08T04:29:03;233.90;;;220.52;;
13999;SDS011;7075;53.574;10.054;2023-02-08T04:31:28;228.82;;;216.13;;
13999;SDS011;7075;53.574;10.054;2023-02-08T04:33:54;240.20;;;226.77;;
13999;SDS011;7075;53.574;10.054;2023-02-08T04:36:19;223.73;;;211.00;;
13999;SDS011;7075;53.574;10.054;2023-02-08T04:38:45;228.40;;;215.48;;
13999;SDS011;7075;53.574;10.054;2023-02-08T04:41:10;240.32;;;226.60;;
13999;SDS011;7075;53.574;10.054;2023-02-08T04:43:36;230.93;;;217.77;;
13999;SDS011;7075;53.574;10.054;2023-02-08T04:46:02;225.60;;;212.80;;
13999;SDS011;7075;53.574;10.054;2023-02-08T04:48:27;222.03;;;209.40;;
13999;SDS011;7075;53.574;10.054;2023-02-08T04:50:56;234.45;;;221.30;;
13999;SDS011;7075;53.574;10.054;2023-02-08T04:53:23;229.45;;;216.48;;
13999;SDS011;7075;53.574;10.054;2023-02-08T04:55:49;230.68;;;217.80;;
13999;SDS011;7075;53.574;10.054;2023-02-08T04:58:15;228.05;;;215.20;;
13999;SDS011;7075;53.574;10.054;2023-02-08T05:00:41;227.73;;;214.77;;
13999;SDS011;7075;53.574;10.054;2023-02-08T05:03:07;219.67;;;207.17;;
13999;SDS011;7075;53.574;10.054;2023-02-08T05:05:33;219.77;;;207.30;;
13999;SDS011;7075;53.574;10.054;2023-02-08T05:07:59;237.03;;;223.53;;
13999;SDS011;7075;53.574;10.054;2023-02-08T05:10:25;224.70;;;211.80;;
13999;SDS011;7075;53.574;10.054;2023-02-08T05:12:50;237.57;;;224.20;;
13999;SDS011;7075;53.574;10.054;2023-02-08T05:15:16;249.17;;;234.77;;
13999;SDS011;7075;53.574;10.054;2023-02-08T05:17:41;232.53;;;219.33;;
13999;SDS011;7075;53.574;10.054;2023-02-08T05:20:07;232.20;;;218.52;;
13999;SDS011;7075;53.574;10.054;2023-02-08T05:22:34;230.73;;;217.07;;
13999;SDS011;7075;53.574;10.054;2023-02-08T05:25:00;242.60;;;228.13;;
13999;SDS011;7075;53.574;10.054;2023-02-08T05:27:25;242.90;;;228.52;;
13999;SDS011;7075;53.574;10.054;2023-02-08T05:29:51;245.07;;;230.32;;
13999;SDS011;7075;53.574;10.054;2023-02-08T05:32:16;272.97;;;256.90;;
13999;SDS011;7075;53.574;10.054;2023-02-08T05:34:42;278.70;;;262.37;;
13999;SDS011;7075;53.574;10.054;2023-02-08T05:37:08;298.03;;;280.73;;
13999;SDS011;7075;53.574;10.054;2023-02-08T05:39:33;295.75;;;278.42;;
13999;SDS011;7075;53.574;10.054;2023-02-08T05:41:59;297.90;;;280.35;;
13999;SDS011;7075;53.574;10.054;2023-02-08T05:44:24;290.83;;;273.93;;
13999;SDS011;7075;53.574;10.054;2023-02-08T05:46:50;297.53;;;279.77;;
13999;SDS011;7075;53.574;10.054;2023-02-08T05:49:15;295.42;;;277.70;;
13999;SDS011;7075;53.574;10.054;2023-02-08T05:51:41;296.25;;;278.75;;
13999;SDS011;7075;53.574;10.054;2023-02-08T05:54:07;290.30;;;273.08;;
13999;SDS011;7075;53.574;10.054;2023-02-08T05:56:32;288.25;;;270.70;;
13999;SDS011;7075;53.574;10.054;2023-02-08T05:58:59;303.88;;;285.70;;
13999;SDS011;7075;53.574;10.054;2023-02-08T06:01:25;288.23;;;270.75;;
13999;SDS011;7075;53.574;10.054;2023-02-08T06:03:51;287.15;;;270.08;;
13999;SDS011;7075;53.574;10.054;2023-02-08T06:06:18;295.77;;;278.10;;
13999;SDS011;7075;53.574;10.054;2023-02-08T06:08:43;284.13;;;267.05;;
13999;SDS011;7075;53.574;10.054;2023-02-08T06:11:09;295.98;;;278.38;;
13999;SDS011;7075;53.574;10.054;2023-02-08T06:13:35;286.38;;;269.58;;
13999;SDS011;7075;53.574;10.054;2023-02-08T06:16:00;288.73;;;271.63;;
13999;SDS011;7075;53.574;10.054;2023-02-08T06:18:26;290.70;;;273.30;;
13999;SDS011;7075;53.574;10.054;2023-02-08T06:20:52;293.40;;;276.03;;
13999;SDS011;7075;53.574;10.054;2023-02-08T06:23:18;290.17;;;273.30;;
13999;SDS011;7075;53.574;10.054;2023-02-08T06:25:44;289.45;;;272.63;;
13999;SDS011;7075;53.574;10.054;2023-02-08T06:28:09;268.42;;;252.02;;
13999;SDS011;7075;53.574;10.054;2023-02-08T06:30:36;267.85;;;251.68;;
13999;SDS011;7075;53.574;10.054;2023-02-08T06:33:02;269.30;;;252.90;;
13999;SDS011;7075;53.574;10.054;2023-02-08T06:35:28;286.42;;;269.40;;
13999;SDS011;7075;53.574;10.054;2023-02-08T06:37:53;274.13;;;257.50;;
13999;SDS011;7075;53.574;10.054;2023-02-08T06:40:19;289.20;;;271.93;;
13999;SDS011;7075;53.574;10.054;2023-02-08T06:42:45;300.07;;;282.33;;
13999;SDS011;7075;53.574;10.054;2023-02-08T06:45:11;294.75;;;277.17;;
13999;SDS011;7075;53.574;10.054;2023-02-08T06:47:37;287.23;;;269.77;;
13999;SDS011;7075;53.574;10.054;2023-02-08T06:50:03;275.58;;;259.02;;
13999;SDS011;7075;53.574;10.054;2023-02-08T06:52:29;281.80;;;264.87;;
13999;SDS011;7075;53.574;10.054;2023-02-08T06:54:54;270.37;;;254.17;;
13999;SDS011;7075;53.574;10.054;2023-02-08T06:57:20;274.13;;;258.00;;
13999;SDS011;7075;53.574;10.054;2023-02-08T06:59:45;261.00;;;245.55;;
13999;SDS011;7075;53.574;10.054;2023-02-08T07:02:11;278.37;;;262.00;;
13999;SDS011;7075;53.574;10.054;2023-02-08T07:04:39;276.55;;;260.45;;
13999;SDS011;7075;53.574;10.054;2023-02-08T07:07:05;264.23;;;248.43;;
13999;SDS011;7075;53.574;10.054;2023-02-08T07:09:34;283.40;;;266.15;;
13999;SDS011;7075;53.574;10.054;2023-02-08T07:12:00;295.00;;;277.10;;
13999;SDS011;7075;53.574;10.054;2023-02-08T07:14:29;289.23;;;271.80;;
13999;SDS011;7075;53.574;10.054;2023-02-08T07:16:55;298.02;;;279.38;;
13999;SDS011;7075;53.574;10.054;2023-02-08T07:19:21;276.15;;;259.35;;
13999;SDS011;7075;53.574;10.054;2023-02-08T07:21:47;263.67;;;247.02;;
13999;SDS011;7075;53.574;10.054;2023-02-08T07:24:12;275.35;;;259.02;;
13999;SDS011;7075;53.574;10.054;2023-02-08T07:26:38;296.43;;;278.73;;
13999;SDS011;7075;53.574;10.054;2023-02-08T07:29:03;293.67;;;275.77;;
13999;SDS011;7075;53.574;10.054;2023-02-08T07:31:29;312.92;;;294.00;;
13999;SDS011;7075;53.574;10.054;2023-02-08T07:33:54;312.67;;;293.88;;
13999;SDS011;7075;53.574;10.054;2023-02-08T07:36:20;313.60;;;294.73;;
13999;SDS011;7075;53.574;10.054;2023-02-08T07:38:45;314.80;;;295.97;;
13999;SDS011;7075;53.574;10.054;2023-02-08T07:41:11;305.10;;;286.13;;
13999;SDS011;7075;53.574;10.054;2023-02-08T07:43:38;292.73;;;275.02;;
13999;SDS011;7075;53.574;10.054;2023-02-08T07:46:12;306.45;;;287.75;;
13999;SDS011;7075;53.574;10.054;2023-02-08T07:48:39;293.58;;;275.98;;
13999;SDS011;7075;53.574;10.054;2023-02-08T07:51:05;295.27;;;277.45;;
13999;SDS011;7075;53.574;10.054;2023-02-08T07:53:32;310.70;;;291.73;;
13999;SDS011;7075;53.574;10.054;2023-02-08T07:55:58;297.55;;;279.23;;
13999;SDS011;7075;53.574;10.054;2023-02-08T07:58:23;301.27;;;283.25;;
13999;SDS011;7075;53.574;10.054;2023-02-08T08:00:49;309.00;;;290.20;;
13999;SDS011;7075;53.574;10.054;2023-02-08T08:03:15;295.90;;;277.88;;
13999;SDS011;7075;53.574;10.054;2023-02-08T08:05:41;312.52;;;293.88;;
13999;SDS011;7075;53.574;10.054;2023-02-08T08:08:08;297.50;;;279.52;;
13999;SDS011;7075;53.574;10.054;2023-02-08T08:10:34;301.80;;;283.55;;
13999;SDS011;7075;53.574;10.054;2023-02-08T08:13:00;310.67;;;291.90;;
13999;SDS011;7075;53.574;10.054;2023-02-08T08:15:26;302.57;;;284.80;;
13999;SDS011;7075;53.574;10.054;2023-02-08T08:17:52;305.10;;;287.20;;
13999;SDS011;7075;53.574;10.054;2023-02-08T08:20:18;311.60;;;293.38;;
13999;SDS011;7075;53.574;10.054;2023-02-08T08:22:43;301.52;;;283.58;;
13999;SDS011;7075;53.574;10.054;2023-02-08T08:25:09;309.77;;;291.40;;
13999;SDS011;7075;53.574;10.054;2023-02-08T08:27:35;317.37;;;298.30;;
13999;SDS011;7075;53.574;10.054;2023-02-08T08:30:02;299.37;;;281.27;;
13999;SDS011;7075;53.574;10.054;2023-02-08T08:32:29;302.48;;;284.02;;
13999;SDS011;7075;53.574;10.054;2023-02-08T08:34:55;295.42;;;277.70;;
13999;SDS011;7075;53.574;10.054;2023-02-08T08:37:20;313.92;;;294.92;;
13999;SDS011;7075;53.574;10.054;2023-02-08T08:39:46;329.48;;;309.60;;
13999;SDS011;7075;53.574;10.054;2023-02-08T08:42:12;326.37;;;306.87;;
13999;SDS011;7075;53.574;10.054;2023-02-08T08:44:37;318.57;;;299.30;;
13999;SDS011;7075;53.574;10.054;2023-02-08T08:47:03;327.17;;;307.63;;
13999;SDS011;7075;53.574;10.054;2023-02-08T08:49:29;340.87;;;320.47;;
13999;SDS011;7075;53.574;10.054;2023-02-08T08:51:55;314.20;;;294.87;;
13999;SDS011;7075;53.574;10.054;2023-02-08T08:54:22;323.03;;;303.23;;
13999;SDS011;7075;53.574;10.054;2023-02-08T08:56:47;332.97;;;312.67;;
13999;SDS011;7075;53.574;10.054;2023-02-08T08:59:13;341.90;;;321.77;;
13999;SDS011;7075;53.574;10.054;2023-02-08T09:01:39;336.33;;;316.52;;
13999;SDS011;7075;53.574;10.054;2023-02-08T09:04:06;326.57;;;307.47;;
13999;SDS011;7075;53.574;10.054;2023-02-08T09:06:32;313.98;;;295.67;;
13999;SDS011;7075;53.574;10.054;2023-02-08T09:08:58;295.52;;;277.58;;
13999;SDS011;7075;53.574;10.054;2023-02-08T09:11:24;295.42;;;277.95;;
13999;SDS011;7075;53.574;10.054;2023-02-08T09:13:50;275.20;;;258.70;;
13999;SDS011;7075;53.574;10.054;2023-02-08T09:16:17;269.03;;;253.17;;
13999;SDS011;7075;53.574;10.054;2023-02-08T09:18:44;246.98;;;231.90;;
13999;SDS011;7075;53.574;10.054;2023-02-08T09:21:14;239.23;;;224.48;;
13999;SDS011;7075;53.574;10.054;2023-02-08T09:23:41;208.25;;;195.23;;
13999;SDS011;7075;53.574;10.054;2023-02-08T09:26:13;231.07;;;217.18;;
13999;SDS011;7075;53.574;10.054;2023-02-08T09:28:40;238.27;;;223.95;;
13999;SDS011;7075;53.574;10.054;2023-02-08T09:31:07;250.43;;;235.57;;
13999;SDS011;7075;53.574;10.054;2023-02-08T09:33:47;330.50;;;311.17;;
13999;SDS011;7075;53.574;10.054;2023-02-08T09:36:14;284.48;;;267.90;;
13999;SDS011;7075;53.574;10.054;2023-02-08T09:38:40;160.05;;;149.65;;
13999;SDS011;7075;53.574;10.054;2023-02-08T09:46:25;148.93;;;139.38;;
13999;SDS011;7075;53.574;10.054;2023-02-08T09:48:54;159.52;;;149.35;;
13999;SDS011;7075;53.574;10.054;2023-02-08T09:51:24;154.30;;;144.68;;
13999;SDS011;7075;53.574;10.054;2023-02-08T09:53:58;148.20;;;138.82;;
13999;SDS011;7075;53.574;10.054;2023-02-08T09:56:30;155.93;;;146.13;;
13999;SDS011;7075;53.574;10.054;2023-02-08T09:59:01;158.80;;;148.52;;
13999;SDS011;7075;53.574;10.054;2023-02-08T10:01:27;165.73;;;155.02;;
13999;SDS011;7075;53.574;10.054;2023-02-08T10:06:58;271.87;;;255.83;;
13999;SDS011;7075;53.574;10.054;2023-02-08T10:09:24;260.53;;;245.47;;
13999;SDS011;7075;53.574;10.054;2023-02-08T10:20:27;188.50;;;177.13;;
13999;SDS011;7075;53.574;10.054;2023-02-08T10:28:43;199.40;;;187.45;;
13999;SDS011;7075;53.574;10.054;2023-02-08T10:31:25;190.30;;;178.73;;
13999;SDS011;7075;53.574;10.054;2023-02-08T10:36:57;199.15;;;186.95;;
13999;SDS011;7075;53.574;10.054;2023-02-08T10:39:26;213.43;;;200.70;;
13999;SDS011;7075;53.574;10.054;2023-02-08T10:41:56;210.10;;;197.05;;
13999;SDS011;7075;53.574;10.054;2023-02-08T10:44:24;211.03;;;198.20;;
13999;SDS011;7075;53.574;10.054;2023-02-08T10:47:16;222.18;;;208.75;;
13999;SDS011;7075;53.574;10.054;2023-02-08T10:50:29;232.93;;;218.98;;
13999;SDS011;7075;53.574;10.054;2023-02-08T10:53:12;199.88;;;187.13;;
13999;SDS011;7075;53.574;10.054;2023-02-08T10:55:41;204.90;;;192.70;;
13999;SDS011;7075;53.574;10.054;2023-02-08T10:58:12;224.32;;;210.82;;
13999;SDS011;7075;53.574;10.054;2023-02-08T11:00:42;211.18;;;198.27;;
13999;SDS011;7075;53.574;10.054;2023-02-08T11:03:26;225.65;;;212.50;;
13999;SDS011;7075;53.574;10.054;2023-02-08T11:05:53;231.47;;;217.83;;
13999;SDS011;7075;53.574;10.054;2023-02-08T11:08:23;237.82;;;223.80;;
13999;SDS011;7075;53.574;10.054;2023-02-08T11:11:02;253.98;;;238.93;;
13999;SDS011;7075;53.574;10.054;2023-02-08T11:16:25;268.42;;;252.40;;
13999;SDS011;7075;53.574;10.054;2023-02-08T11:24:03;238.73;;;224.38;;
13999;SDS011;7075;53.574;10.054;2023-02-08T11:26:39;210.27;;;196.82;;
13999;SDS011;7075;53.574;10.054;2023-02-08T11:34:37;215.98;;;202.90;;
13999;SDS011;7075;53.574;10.054;2023-02-08T11:37:17;201.13;;;189.07;;
13999;SDS011;7075;53.574;10.054;2023-02-08T11:39:51;195.30;;;183.70;;
13999;SDS011;7075;53.574;10.054;2023-02-08T11:42:20;188.25;;;177.02;;
13999;SDS011;7075;53.574;10.054;2023-02-08T11:44:55;209.43;;;197.05;;
13999;SDS011;7075;53.574;10.054;2023-02-08T11:47:25;209.97;;;197.53;;
13999;SDS011;7075;53.574;10.054;2023-02-08T11:49:55;206.10;;;193.90;;
13999;SDS011;7075;53.574;10.054;2023-02-08T11:52:25;191.57;;;180.40;;
13999;SDS011;7075;53.574;10.054;2023-02-08T12:00:41;207.93;;;195.40;;
13999;SDS011;7075;53.574;10.054;2023-02-08T12:03:47;202.23;;;189.93;;
13999;SDS011;7075;53.574;10.054;2023-02-08T12:06:37;206.27;;;194.27;;
13999;SDS011;7075;53.574;10.054;2023-02-08T12:12:24;281.35;;;265.60;;
13999;SDS011;7075;53.574;10.054;2023-02-08T12:15:14;279.25;;;262.45;;
13999;SDS011;7075;53.574;10.054;2023-02-08T12:18:19;313.88;;;296.10;;
13999;SDS011;7075;53.574;10.054;2023-02-08T12:21:02;284.13;;;267.05;;
13999;SDS011;7075;53.574;10.054;2023-02-08T12:23:46;295.65;;;277.15;;
13999;SDS011;7075;53.574;10.054;2023-02-08T12:31:59;249.80;;;234.23;;
13999;SDS011;7075;53.574;10.054;2023-02-08T12:34:41;222.98;;;209.18;;
13999;SDS011;7075;53.574;10.054;2023-02-08T12:43:18;210.32;;;197.32;;
13999;SDS011;7075;53.574;10.054;2023-02-08T12:51:18;173.13;;;162.77;;
13999;SDS011;7075;53.574;10.054;2023-02-08T12:53:50;187.98;;;176.63;;
13999;SDS011;7075;53.574;10.054;2023-02-08T12:56:25;186.40;;;174.38;;
13999;SDS011;7075;53.574;10.054;2023-02-08T12:58:56;236.53;;;222.13;;
13999;SDS011;7075;53.574;10.054;2023-02-08T13:01:25;225.75;;;212.02;;
13999;SDS011;7075;53.574;10.054;2023-02-08T13:03:59;252.57;;;236.73;;
13999;SDS011;7075;53.574;10.054;2023-02-08T13:06:43;304.08;;;285.95;;
13999;SDS011;7075;53.574;10.054;2023-02-08T13:11:53;247.05;;;231.93;;
13999;SDS011;7075;53.574;10.054;2023-02-08T13:14:31;420.95;;;394.88;;
13999;SDS011;7075;53.574;10.054;2023-02-08T13:17:10;426.40;;;399.67;;
13999;SDS011;7075;53.574;10.054;2023-02-08T13:20:04;337.35;;;316.38;;
13999;SDS011;7075;53.574;10.054;2023-02-08T13:22:41;326.73;;;306.77;;
13999;SDS011;7075;53.574;10.054;2023-02-08T13:25:13;464.73;;;434.58;;
13999;SDS011;7075;53.574;10.054;2023-02-08T13:27:45;402.47;;;377.50;;
13999;SDS011;7075;53.574;10.054;2023-02-08T13:30:18;359.05;;;336.33;;
13999;SDS011;7075;53.574;10.054;2023-02-08T13:32:45;318.38;;;299.02;;
13999;SDS011;7075;53.574;10.054;2023-02-08T13:35:24;297.17;;;279.60;;
13999;SDS011;7075;53.574;10.054;2023-02-08T13:38:05;231.35;;;217.73;;
13999;SDS011;7075;53.574;10.054;2023-02-08T13:40:59;234.95;;;221.23;;
13999;SDS011;7075;53.574;10.054;2023-02-08T13:46:44;244.32;;;229.65;;
13999;SDS011;7075;53.574;10.054;2023-02-08T13:55:37;226.40;;;213.25;;
13999;SDS011;7075;53.574;10.054;2023-02-08T13:57:56;252.97;;;238.33;;
13999;SDS011;7075;53.574;10.054;2023-02-08T14:05:40;255.80;;;240.98;;
13999;SDS011;7075;53.574;10.054;2023-02-08T14:08:10;250.63;;;235.77;;
13999;SDS011;7075;53.574;10.054;2023-02-08T14:11:10;249.98;;;235.73;;
13999;SDS011;7075;53.574;10.054;2023-02-08T14:16:22;254.77;;;239.93;;
13999;SDS011;7075;53.574;10.054;2023-02-08T14:19:01;256.03;;;241.37;;
13999;SDS011;7075;53.574;10.054;2023-02-08T14:21:33;238.13;;;224.35;;
13999;SDS011;7075;53.574;10.054;2023-02-08T14:24:26;248.48;;;233.68;;
13999;SDS011;7075;53.574;10.054;2023-02-08T14:27:05;237.77;;;223.95;;
13999;SDS011;7075;53.574;10.054;2023-02-08T14:29:33;246.13;;;231.73;;
13999;SDS011;7075;53.574;10.054;2023-02-08T14:32:00;268.77;;;252.95;;
13999;SDS011;7075;53.574;10.054;2023-02-08T14:34:30;284.80;;;267.90;;
13999;SDS011;7075;53.574;10.054;2023-02-08T14:37:43;255.32;;;240.13;;
13999;SDS011;7075;53.574;10.054;2023-02-08T14:39:45;277.75;;;261.13;;
13999;SDS011;7075;53.574;10.054;2023-02-08T14:42:15;279.27;;;262.77;;
13999;SDS011;7075;53.574;10.054;2023-02-08T14:45:29;263.50;;;248.17;;
13999;SDS011;7075;53.574;10.054;2023-02-08T14:50:41;254.95;;;240.30;;
13999;SDS011;7075;53.574;10.054;2023-02-08T14:53:23;252.05;;;237.48;;
13999;SDS011;7075;53.574;10.054;2023-02-08T14:56:20;250.98;;;236.45;;
13999;SDS011;7075;53.574;10.054;2023-02-08T14:58:52;241.02;;;227.10;;
13999;SDS011;7075;53.574;10.054;2023-02-08T15:01:34;231.38;;;218.05;;
13999;SDS011;7075;53.574;10.054;2023-02-08T15:04:06;256.00;;;241.23;;
13999;SDS011;7075;53.574;10.054;2023-02-08T15:09:02;282.85;;;265.58;;
13999;SDS011;7075;53.574;10.054;2023-02-08T15:11:40;314.63;;;295.15;;
13999;SDS011;7075;53.574;10.054;2023-02-08T15:14:06;343.08;;;321.15;;
13999;SDS011;7075;53.574;10.054;2023-02-08T15:16:43;318.60;;;298.33;;
13999;SDS011;7075;53.574;10.054;2023-02-08T15:19:15;312.20;;;293.05;;
13999;SDS011;7075;53.574;10.054;2023-02-08T15:21:47;284.83;;;268.20;;
13999;SDS011;7075;53.574;10.054;2023-02-08T15:26:52;282.73;;;266.38;;
13999;SDS011;7075;53.574;10.054;2023-02-08T15:31:49;283.70;;;266.85;;
13999;SDS011;7075;53.574;10.054;2023-02-08T15:34:16;288.33;;;271.38;;
13999;SDS011;7075;53.574;10.054;2023-02-08T15:36:47;293.45;;;276.08;;
13999;SDS011;7075;53.574;10.054;2023-02-08T15:39:22;282.37;;;265.60;;
13999;SDS011;7075;53.574;10.054;2023-02-08T15:41:55;279.60;;;263.03;;
13999;SDS011;7075;53.574;10.054;2023-02-08T15:44:24;271.00;;;255.18;;
13999;SDS011;7075;53.574;10.054;2023-02-08T15:46:53;270.52;;;254.65;;
13999;SDS011;7075;53.574;10.054;2023-02-08T15:49:29;296.55;;;279.30;;
13999;SDS011;7075;53.574;10.054;2023-02-08T15:51:58;356.65;;;336.38;;
13999;SDS011;7075;53.574;10.054;2023-02-08T15:54:24;329.98;;;312.35;;
13999;SDS011;7075;53.574;10.054;2023-02-08T15:57:00;309.13;;;291.83;;
13999;SDS011;7075;53.574;10.054;2023-02-08T15:59:31;289.43;;;273.80;;
13999;SDS011;7075;53.574;10.054;2023-02-08T16:02:02;300.03;;;283.53;;
13999;SDS011;7075;53.574;10.054;2023-02-08T16:04:46;371.20;;;350.53;;
13999;SDS011;7075;53.574;10.054;2023-02-08T16:07:18;298.47;;;282.07;;
13999;SDS011;7075;53.574;10.054;2023-02-08T16:09:57;276.50;;;261.15;;
13999;SDS011;7075;53.574;10.054;2023-02-08T16:12:24;294.15;;;277.90;;
13999;SDS011;7075;53.574;10.054;2023-02-08T16:14:51;252.00;;;238.13;;
13999;SDS011;7075;53.574;10.054;2023-02-08T16:17:28;268.05;;;253.48;;
13999;SDS011;7075;53.574;10.054;2023-02-08T16:20:28;262.25;;;247.70;;
13999;SDS011;7075;53.574;10.054;2023-02-08T16:22:59;259.48;;;245.23;;
13999;SDS011;7075;53.574;10.054;2023-02-08T16:28:01;274.80;;;259.52;;
13999;SDS011;7075;53.574;10.054;2023-02-08T16:30:28;285.17;;;270.02;;
13999;SDS011;7075;53.574;10.054;2023-02-08T16:32:54;291.30;;;275.63;;